Gobler, Missouri
Current Conditions -  °F | °C
As of 5:53 AM on Sunday 21 Dec 2014 (Local Time) from KHKA Reporting Station
Broken Clouds Broken Clouds  
Wind Chill: 23°   Ceiling: 5000
Heat Index: 29°   Visibility: 8mi
Dew Point: 27°   Wind: 6mph
Humidity: 92%   Direction: 50°NE
Pressure: 30.24"   Gusts: NA
Location:  36.16°N, 89.96°W
Report Text: KHKA 211153Z AUTO 05005KT 8SM BKN050 M02/M03 A3024 RMK AO2 SLP241 T10171028 10006 21017 55004
Loading
Personal Weather Stations






























Interactive Weather Map New forecast layout! Learn more

10-Day Weather Forecast

Advertisements
Track Severe Weather on mobile